sensor_id;sensor_type;location;lat;lon;timestamp;temperature;humidity
37844;DHT22;63793;57.632;18.292;2022-12-18T00:01:17;0.70;99.90
37844;DHT22;63793;57.632;18.292;2022-12-18T00:03:45;0.70;99.90
37844;DHT22;63793;57.632;18.292;2022-12-18T00:06:13;0.70;99.90
37844;DHT22;63793;57.632;18.292;2022-12-18T00:08:41;0.80;99.90
37844;DHT22;63793;57.632;18.292;2022-12-18T00:11:11;0.80;99.90
37844;DHT22;63793;57.632;18.292;2022-12-18T00:13:39;0.80;99.90
37844;DHT22;63793;57.632;18.292;2022-12-18T00:16:09;0.70;99.90
37844;DHT22;63793;57.632;18.292;2022-12-18T00:18:36;0.70;99.90
37844;DHT22;63793;57.632;18.292;2022-12-18T00:21:06;0.60;99.90
37844;DHT22;63793;57.632;18.292;2022-12-18T00:23:35;0.60;99.90
37844;DHT22;63793;57.632;18.292;2022-12-18T00:26:06;0.60;99.90
37844;DHT22;63793;57.632;18.292;2022-12-18T00:28:33;0.60;99.90
37844;DHT22;63793;57.632;18.292;2022-12-18T00:31:05;0.60;99.90
37844;DHT22;63793;57.632;18.292;2022-12-18T00:33:33;0.60;99.90
37844;DHT22;63793;57.632;18.292;2022-12-18T00:36:04;0.50;99.90
37844;DHT22;63793;57.632;18.292;2022-12-18T00:38:32;0.60;99.90
37844;DHT22;63793;57.632;18.292;2022-12-18T00:40:59;0.60;99.90
37844;DHT22;63793;57.632;18.292;2022-12-18T00:43:26;0.60;99.90
37844;DHT22;63793;57.632;18.292;2022-12-18T00:45:53;0.60;99.90
37844;DHT22;63793;57.632;18.292;2022-12-18T00:48:21;0.60;99.90
37844;DHT22;63793;57.632;18.292;2022-12-18T00:50:49;0.70;99.90
37844;DHT22;63793;57.632;18.292;2022-12-18T00:53:16;0.70;99.90
37844;DHT22;63793;57.632;18.292;2022-12-18T00:55:43;0.70;99.90
37844;DHT22;63793;57.632;18.292;2022-12-18T00:58:12;0.70;99.90
37844;DHT22;63793;57.632;18.292;2022-12-18T01:00:39;0.70;99.90
37844;DHT22;63793;57.632;18.292;2022-12-18T01:03:12;0.80;99.90
37844;DHT22;63793;57.632;18.292;2022-12-18T01:05:40;0.80;99.90
37844;DHT22;63793;57.632;18.292;2022-12-18T01:08:08;0.80;99.90
37844;DHT22;63793;57.632;18.292;2022-12-18T01:10:35;0.80;99.90
37844;DHT22;63793;57.632;18.292;2022-12-18T01:13:02;0.80;99.90
37844;DHT22;63793;57.632;18.292;2022-12-18T01:15:29;0.80;99.90
37844;DHT22;63793;57.632;18.292;2022-12-18T01:17:56;0.80;99.90
37844;DHT22;63793;57.632;18.292;2022-12-18T01:20:26;0.80;99.90
37844;DHT22;63793;57.632;18.292;2022-12-18T01:22:53;0.80;99.90
37844;DHT22;63793;57.632;18.292;2022-12-18T01:25:19;0.80;99.90
37844;DHT22;63793;57.632;18.292;2022-12-18T01:27:46;0.70;99.90
37844;DHT22;63793;57.632;18.292;2022-12-18T01:30:13;0.70;99.90
37844;DHT22;63793;57.632;18.292;2022-12-18T01:32:40;0.70;99.90
37844;DHT22;63793;57.632;18.292;2022-12-18T01:35:08;0.60;99.90
37844;DHT22;63793;57.632;18.292;2022-12-18T01:37:35;0.60;99.90
37844;DHT22;63793;57.632;18.292;2022-12-18T01:40:01;0.50;99.90
37844;DHT22;63793;57.632;18.292;2022-12-18T01:42:28;0.50;99.90
37844;DHT22;63793;57.632;18.292;2022-12-18T01:47:50;0.40;99.90
37844;DHT22;63793;57.632;18.292;2022-12-18T01:55:50;0.20;99.90
37844;DHT22;63793;57.632;18.292;2022-12-18T01:58:20;0.20;99.90
37844;DHT22;63793;57.632;18.292;2022-12-18T02:00:48;0.20;99.90
37844;DHT22;63793;57.632;18.292;2022-12-18T02:03:18;0.20;99.90
37844;DHT22;63793;57.632;18.292;2022-12-18T02:06:25;0.20;99.90
37844;DHT22;63793;57.632;18.292;2022-12-18T02:09:07;0.20;99.90
37844;DHT22;63793;57.632;18.292;2022-12-18T02:11:55;0.20;99.90
37844;DHT22;63793;57.632;18.292;2022-12-18T02:14:41;0.20;99.90
37844;DHT22;63793;57.632;18.292;2022-12-18T02:17:22;0.20;99.90
37844;DHT22;63793;57.632;18.292;2022-12-18T02:28:56;0.20;99.90
37844;DHT22;63793;57.632;18.292;2022-12-18T02:31:28;0.30;99.90
37844;DHT22;63793;57.632;18.292;2022-12-18T02:34:00;0.30;99.90
37844;DHT22;63793;57.632;18.292;2022-12-18T02:36:36;0.30;99.90
37844;DHT22;63793;57.632;18.292;2022-12-18T02:39:07;0.30;99.90
37844;DHT22;63793;57.632;18.292;2022-12-18T02:41:36;0.40;99.90
37844;DHT22;63793;57.632;18.292;2022-12-18T02:44:09;0.40;99.90
37844;DHT22;63793;57.632;18.292;2022-12-18T02:46:39;0.40;99.90
37844;DHT22;63793;57.632;18.292;2022-12-18T02:52:17;0.40;99.90
37844;DHT22;63793;57.632;18.292;2022-12-18T02:58:05;0.40;99.90
37844;DHT22;63793;57.632;18.292;2022-12-18T03:00:51;0.40;99.90
37844;DHT22;63793;57.632;18.292;2022-12-18T03:03:37;0.40;99.90
37844;DHT22;63793;57.632;18.292;2022-12-18T03:06:23;0.50;99.90
37844;DHT22;63793;57.632;18.292;2022-12-18T03:08:56;0.50;99.90
37844;DHT22;63793;57.632;18.292;2022-12-18T03:11:27;0.50;99.90
37844;DHT22;63793;57.632;18.292;2022-12-18T03:14:15;0.50;99.90
37844;DHT22;63793;57.632;18.292;2022-12-18T03:16:48;0.60;99.90
37844;DHT22;63793;57.632;18.292;2022-12-18T03:19:19;0.50;99.90
37844;DHT22;63793;57.632;18.292;2022-12-18T03:21:53;0.50;99.90
37844;DHT22;63793;57.632;18.292;2022-12-18T03:24:24;0.60;99.90
37844;DHT22;63793;57.632;18.292;2022-12-18T03:26:58;0.50;99.90
37844;DHT22;63793;57.632;18.292;2022-12-18T03:29:35;0.50;99.90
37844;DHT22;63793;57.632;18.292;2022-12-18T03:32:09;0.50;99.90
37844;DHT22;63793;57.632;18.292;2022-12-18T03:34:39;0.60;99.90
37844;DHT22;63793;57.632;18.292;2022-12-18T03:37:09;0.50;99.90
37844;DHT22;63793;57.632;18.292;2022-12-18T03:39:36;0.60;99.90
37844;DHT22;63793;57.632;18.292;2022-12-18T03:42:12;0.50;99.90
37844;DHT22;63793;57.632;18.292;2022-12-18T03:45:11;0.50;99.90
37844;DHT22;63793;57.632;18.292;2022-12-18T03:48:01;0.50;99.90
37844;DHT22;63793;57.632;18.292;2022-12-18T03:50:56;0.50;99.90
37844;DHT22;63793;57.632;18.292;2022-12-18T03:53:37;0.40;99.90
37844;DHT22;63793;57.632;18.292;2022-12-18T03:56:07;0.40;99.90
37844;DHT22;63793;57.632;18.292;2022-12-18T03:58:38;0.40;99.90
37844;DHT22;63793;57.632;18.292;2022-12-18T04:01:18;0.40;99.90
37844;DHT22;63793;57.632;18.292;2022-12-18T04:03:47;0.40;99.90
37844;DHT22;63793;57.632;18.292;2022-12-18T04:06:18;0.40;99.90
37844;DHT22;63793;57.632;18.292;2022-12-18T04:08:46;0.40;99.90
37844;DHT22;63793;57.632;18.292;2022-12-18T04:11:16;0.40;99.90
37844;DHT22;63793;57.632;18.292;2022-12-18T04:13:45;0.40;99.90
37844;DHT22;63793;57.632;18.292;2022-12-18T04:16:21;0.50;99.90
37844;DHT22;63793;57.632;18.292;2022-12-18T04:18:51;0.50;99.90
37844;DHT22;63793;57.632;18.292;2022-12-18T04:21:19;0.60;99.90
37844;DHT22;63793;57.632;18.292;2022-12-18T04:23:48;0.60;99.90
37844;DHT22;63793;57.632;18.292;2022-12-18T04:26:17;0.70;99.90
37844;DHT22;63793;57.632;18.292;2022-12-18T04:28:53;0.70;99.90
37844;DHT22;63793;57.632;18.292;2022-12-18T04:31:21;0.70;99.90
37844;DHT22;63793;57.632;18.292;2022-12-18T04:33:48;0.70;99.90
37844;DHT22;63793;57.632;18.292;2022-12-18T04:36:16;0.80;99.90
37844;DHT22;63793;57.632;18.292;2022-12-18T04:38:44;0.90;99.90
37844;DHT22;63793;57.632;18.292;2022-12-18T04:41:14;0.90;99.90
37844;DHT22;63793;57.632;18.292;2022-12-18T04:43:43;1.00;99.90
37844;DHT22;63793;57.632;18.292;2022-12-18T04:46:10;1.00;99.90
37844;DHT22;63793;57.632;18.292;2022-12-18T04:48:37;1.00;99.90
37844;DHT22;63793;57.632;18.292;2022-12-18T04:51:05;1.00;99.90
37844;DHT22;63793;57.632;18.292;2022-12-18T04:53:32;1.00;99.90
37844;DHT22;63793;57.632;18.292;2022-12-18T04:56:05;1.00;99.90
37844;DHT22;63793;57.632;18.292;2022-12-18T04:58:32;1.00;99.90
37844;DHT22;63793;57.632;18.292;2022-12-18T05:00:59;1.00;99.90
37844;DHT22;63793;57.632;18.292;2022-12-18T05:03:25;1.00;99.90
37844;DHT22;63793;57.632;18.292;2022-12-18T05:05:52;1.00;99.90
37844;DHT22;63793;57.632;18.292;2022-12-18T05:08:19;0.90;99.90
37844;DHT22;63793;57.632;18.292;2022-12-18T05:10:46;0.90;99.90
37844;DHT22;63793;57.632;18.292;2022-12-18T05:13:13;0.90;99.90
37844;DHT22;63793;57.632;18.292;2022-12-18T05:15:40;1.00;99.90
37844;DHT22;63793;57.632;18.292;2022-12-18T05:18:08;1.00;99.90
37844;DHT22;63793;57.632;18.292;2022-12-18T05:20:35;1.00;99.90
37844;DHT22;63793;57.632;18.292;2022-12-18T05:23:02;1.00;99.90
37844;DHT22;63793;57.632;18.292;2022-12-18T05:25:29;1.10;99.90
37844;DHT22;63793;57.632;18.292;2022-12-18T05:27:56;1.10;99.90
37844;DHT22;63793;57.632;18.292;2022-12-18T05:30:23;1.10;99.90
37844;DHT22;63793;57.632;18.292;2022-12-18T05:32:50;1.20;99.90
37844;DHT22;63793;57.632;18.292;2022-12-18T05:35:17;1.20;99.90
37844;DHT22;63793;57.632;18.292;2022-12-18T05:37:44;1.20;99.90
37844;DHT22;63793;57.632;18.292;2022-12-18T05:40:11;1.30;99.90
37844;DHT22;63793;57.632;18.292;2022-12-18T05:42:38;1.30;99.90
37844;DHT22;63793;57.632;18.292;2022-12-18T05:45:06;1.20;99.90
37844;DHT22;63793;57.632;18.292;2022-12-18T05:47:33;1.30;99.90
37844;DHT22;63793;57.632;18.292;2022-12-18T05:50:00;1.30;99.90
37844;DHT22;63793;57.632;18.292;2022-12-18T05:52:27;1.20;99.90
37844;DHT22;63793;57.632;18.292;2022-12-18T05:54:54;1.30;99.90
37844;DHT22;63793;57.632;18.292;2022-12-18T05:57:21;1.30;99.90
37844;DHT22;63793;57.632;18.292;2022-12-18T05:59:48;1.30;99.90
37844;DHT22;63793;57.632;18.292;2022-12-18T06:02:14;1.30;99.90
37844;DHT22;63793;57.632;18.292;2022-12-18T06:04:41;1.30;99.90
37844;DHT22;63793;57.632;18.292;2022-12-18T06:07:08;1.30;99.90
37844;DHT22;63793;57.632;18.292;2022-12-18T06:09:35;1.30;99.90
37844;DHT22;63793;57.632;18.292;2022-12-18T06:12:02;1.40;99.90
37844;DHT22;63793;57.632;18.292;2022-12-18T06:14:29;1.40;99.90
37844;DHT22;63793;57.632;18.292;2022-12-18T06:16:56;1.50;99.90
37844;DHT22;63793;57.632;18.292;2022-12-18T06:19:23;1.50;99.90
37844;DHT22;63793;57.632;18.292;2022-12-18T06:21:49;1.40;99.90
37844;DHT22;63793;57.632;18.292;2022-12-18T06:24:16;1.50;99.90
37844;DHT22;63793;57.632;18.292;2022-12-18T06:26:43;1.50;99.90
37844;DHT22;63793;57.632;18.292;2022-12-18T06:29:10;1.50;99.90
37844;DHT22;63793;57.632;18.292;2022-12-18T06:31:37;1.50;99.90
37844;DHT22;63793;57.632;18.292;2022-12-18T06:34:04;1.50;99.90
37844;DHT22;63793;57.632;18.292;2022-12-18T06:36:31;1.60;99.90
37844;DHT22;63793;57.632;18.292;2022-12-18T06:38:58;1.60;99.90
37844;DHT22;63793;57.632;18.292;2022-12-18T06:41:25;1.60;99.90
37844;DHT22;63793;57.632;18.292;2022-12-18T06:43:52;1.60;99.90
37844;DHT22;63793;57.632;18.292;2022-12-18T06:46:25;1.60;99.90
37844;DHT22;63793;57.632;18.292;2022-12-18T06:48:52;1.60;99.90
37844;DHT22;63793;57.632;18.292;2022-12-18T06:51:23;1.70;99.90
37844;DHT22;63793;57.632;18.292;2022-12-18T06:53:50;1.70;99.90
37844;DHT22;63793;57.632;18.292;2022-12-18T06:56:17;1.70;99.90
37844;DHT22;63793;57.632;18.292;2022-12-18T06:58:44;1.70;99.90
37844;DHT22;63793;57.632;18.292;2022-12-18T07:01:12;1.70;99.90
37844;DHT22;63793;57.632;18.292;2022-12-18T07:03:40;1.70;99.90
37844;DHT22;63793;57.632;18.292;2022-12-18T07:06:16;1.80;99.90
37844;DHT22;63793;57.632;18.292;2022-12-18T07:08:43;1.80;99.90
37844;DHT22;63793;57.632;18.292;2022-12-18T07:11:10;1.80;99.90
37844;DHT22;63793;57.632;18.292;2022-12-18T07:13:38;1.80;99.90
37844;DHT22;63793;57.632;18.292;2022-12-18T07:16:10;1.90;99.90
37844;DHT22;63793;57.632;18.292;2022-12-18T07:18:48;1.90;99.90
37844;DHT22;63793;57.632;18.292;2022-12-18T07:21:17;1.90;99.90
37844;DHT22;63793;57.632;18.292;2022-12-18T07:23:44;1.90;99.90
37844;DHT22;63793;57.632;18.292;2022-12-18T07:26:17;2.00;99.90
37844;DHT22;63793;57.632;18.292;2022-12-18T07:28:44;2.00;99.90
37844;DHT22;63793;57.632;18.292;2022-12-18T07:31:13;2.00;99.90
37844;DHT22;63793;57.632;18.292;2022-12-18T07:33:41;2.00;99.90
37844;DHT22;63793;57.632;18.292;2022-12-18T07:36:09;2.00;99.90
37844;DHT22;63793;57.632;18.292;2022-12-18T07:38:36;2.00;99.90
37844;DHT22;63793;57.632;18.292;2022-12-18T07:41:08;2.10;99.90
37844;DHT22;63793;57.632;18.292;2022-12-18T07:43:35;2.10;99.90
37844;DHT22;63793;57.632;18.292;2022-12-18T07:46:03;2.20;99.90
37844;DHT22;63793;57.632;18.292;2022-12-18T07:48:31;2.20;99.90
37844;DHT22;63793;57.632;18.292;2022-12-18T07:50:59;2.30;99.90
37844;DHT22;63793;57.632;18.292;2022-12-18T07:53:26;2.30;99.90
37844;DHT22;63793;57.632;18.292;2022-12-18T07:55:57;2.30;99.90
37844;DHT22;63793;57.632;18.292;2022-12-18T07:58:44;2.40;99.90
37844;DHT22;63793;57.632;18.292;2022-12-18T08:01:13;2.40;99.90
37844;DHT22;63793;57.632;18.292;2022-12-18T08:03:40;2.50;99.90
37844;DHT22;63793;57.632;18.292;2022-12-18T08:06:09;2.50;99.90
37844;DHT22;63793;57.632;18.292;2022-12-18T08:08:36;2.50;99.90
37844;DHT22;63793;57.632;18.292;2022-12-18T08:11:03;2.50;99.90
37844;DHT22;63793;57.632;18.292;2022-12-18T08:13:30;2.50;99.90
37844;DHT22;63793;57.632;18.292;2022-12-18T08:16:05;2.60;99.90
37844;DHT22;63793;57.632;18.292;2022-12-18T08:18:37;2.60;99.90
37844;DHT22;63793;57.632;18.292;2022-12-18T08:21:11;2.60;99.90
37844;DHT22;63793;57.632;18.292;2022-12-18T08:23:38;2.70;99.90
37844;DHT22;63793;57.632;18.292;2022-12-18T08:26:10;2.70;99.90
37844;DHT22;63793;57.632;18.292;2022-12-18T08:28:37;2.80;99.90
37844;DHT22;63793;57.632;18.292;2022-12-18T08:31:05;2.80;99.90
37844;DHT22;63793;57.632;18.292;2022-12-18T08:33:32;2.80;99.90
37844;DHT22;63793;57.632;18.292;2022-12-18T08:36:00;2.90;99.90
37844;DHT22;63793;57.632;18.292;2022-12-18T08:38:27;2.80;99.90
37844;DHT22;63793;57.632;18.292;2022-12-18T08:41:09;2.80;99.90
37844;DHT22;63793;57.632;18.292;2022-12-18T08:43:37;2.80;99.90
37844;DHT22;63793;57.632;18.292;2022-12-18T08:46:24;2.90;99.90
37844;DHT22;63793;57.632;18.292;2022-12-18T08:48:52;2.80;99.90
37844;DHT22;63793;57.632;18.292;2022-12-18T08:51:20;2.80;99.90
37844;DHT22;63793;57.632;18.292;2022-12-18T08:53:47;2.80;99.90
37844;DHT22;63793;57.632;18.292;2022-12-18T08:56:14;2.80;99.90
37844;DHT22;63793;57.632;18.292;2022-12-18T08:58:42;2.80;99.90
37844;DHT22;63793;57.632;18.292;2022-12-18T09:01:11;2.80;99.90
37844;DHT22;63793;57.632;18.292;2022-12-18T09:03:39;2.90;99.90
37844;DHT22;63793;57.632;18.292;2022-12-18T09:06:07;2.80;99.90
37844;DHT22;63793;57.632;18.292;2022-12-18T09:08:34;2.80;99.90
37844;DHT22;63793;57.632;18.292;2022-12-18T09:11:01;2.80;99.90
37844;DHT22;63793;57.632;18.292;2022-12-18T09:13:28;2.80;99.90
37844;DHT22;63793;57.632;18.292;2022-12-18T09:15:55;2.80;99.90
37844;DHT22;63793;57.632;18.292;2022-12-18T09:18:23;2.80;99.90
37844;DHT22;63793;57.632;18.292;2022-12-18T09:20:50;2.90;99.90
37844;DHT22;63793;57.632;18.292;2022-12-18T09:23:20;2.90;99.90
37844;DHT22;63793;57.632;18.292;2022-12-18T09:25:47;2.90;99.90
37844;DHT22;63793;57.632;18.292;2022-12-18T09:28:16;2.90;99.90
37844;DHT22;63793;57.632;18.292;2022-12-18T09:30:46;2.90;99.90
37844;DHT22;63793;57.632;18.292;2022-12-18T09:33:13;2.90;99.90
37844;DHT22;63793;57.632;18.292;2022-12-18T09:35:41;2.90;99.90
37844;DHT22;63793;57.632;18.292;2022-12-18T09:38:12;2.90;99.90
37844;DHT22;63793;57.632;18.292;2022-12-18T09:40:45;2.90;99.90
37844;DHT22;63793;57.632;18.292;2022-12-18T09:43:21;3.00;99.90
37844;DHT22;63793;57.632;18.292;2022-12-18T09:46:00;2.90;99.90
37844;DHT22;63793;57.632;18.292;2022-12-18T09:48:31;2.90;99.90
37844;DHT22;63793;57.632;18.292;2022-12-18T09:51:03;2.90;99.90
37844;DHT22;63793;57.632;18.292;2022-12-18T09:53:34;2.90;99.90
37844;DHT22;63793;57.632;18.292;2022-12-18T09:56:03;2.90;99.90
37844;DHT22;63793;57.632;18.292;2022-12-18T09:58:45;2.90;99.90
37844;DHT22;63793;57.632;18.292;2022-12-18T10:01:24;2.90;99.90
37844;DHT22;63793;57.632;18.292;2022-12-18T10:03:59;2.90;99.90
37844;DHT22;63793;57.632;18.292;2022-12-18T10:09:31;2.90;99.90
37844;DHT22;63793;57.632;18.292;2022-12-18T10:12:06;2.90;99.90
37844;DHT22;63793;57.632;18.292;2022-12-18T10:20:44;3.00;99.90
37844;DHT22;63793;57.632;18.292;2022-12-18T10:26:04;3.00;99.90
37844;DHT22;63793;57.632;18.292;2022-12-18T10:28:34;3.00;99.90
37844;DHT22;63793;57.632;18.292;2022-12-18T10:31:05;3.00;99.90
37844;DHT22;63793;57.632;18.292;2022-12-18T10:33:34;3.00;99.90
37844;DHT22;63793;57.632;18.292;2022-12-18T10:36:01;3.00;99.90
37844;DHT22;63793;57.632;18.292;2022-12-18T10:38:29;3.00;99.90
37844;DHT22;63793;57.632;18.292;2022-12-18T10:41:02;3.00;99.90
37844;DHT22;63793;57.632;18.292;2022-12-18T10:43:34;2.90;99.90
37844;DHT22;63793;57.632;18.292;2022-12-18T10:48:36;2.90;99.90
37844;DHT22;63793;57.632;18.292;2022-12-18T10:51:03;2.90;99.90
37844;DHT22;63793;57.632;18.292;2022-12-18T10:53:40;2.90;99.90
37844;DHT22;63793;57.632;18.292;2022-12-18T10:56:08;2.80;99.90
37844;DHT22;63793;57.632;18.292;2022-12-18T10:58:38;2.80;99.90
37844;DHT22;63793;57.632;18.292;2022-12-18T11:01:12;2.80;99.90
37844;DHT22;63793;57.632;18.292;2022-12-18T11:03:47;2.70;99.90
37844;DHT22;63793;57.632;18.292;2022-12-18T11:06:29;2.70;99.90
37844;DHT22;63793;57.632;18.292;2022-12-18T11:11:56;2.70;99.90
37844;DHT22;63793;57.632;18.292;2022-12-18T11:14:46;2.70;99.90
37844;DHT22;63793;57.632;18.292;2022-12-18T11:17:30;2.70;99.90
37844;DHT22;63793;57.632;18.292;2022-12-18T11:20:06;2.80;99.90
37844;DHT22;63793;57.632;18.292;2022-12-18T11:22:35;2.80;99.90
37844;DHT22;63793;57.632;18.292;2022-12-18T11:27:56;2.80;99.90
37844;DHT22;63793;57.632;18.292;2022-12-18T11:30:33;2.80;99.90
37844;DHT22;63793;57.632;18.292;2022-12-18T11:33:14;2.80;99.90
37844;DHT22;63793;57.632;18.292;2022-12-18T11:36:00;2.80;99.90
37844;DHT22;63793;57.632;18.292;2022-12-18T11:38:33;2.80;99.90
37844;DHT22;63793;57.632;18.292;2022-12-18T11:41:29;2.80;99.90
37844;DHT22;63793;57.632;18.292;2022-12-18T11:44:21;2.70;99.90
37844;DHT22;63793;57.632;18.292;2022-12-18T11:46:55;2.80;99.90
37844;DHT22;63793;57.632;18.292;2022-12-18T11:49:28;2.80;99.90
37844;DHT22;63793;57.632;18.292;2022-12-18T11:54:46;2.70;99.90
37844;DHT22;63793;57.632;18.292;2022-12-18T12:00:16;2.70;99.90
37844;DHT22;63793;57.632;18.292;2022-12-18T12:08:45;2.60;99.90
37844;DHT22;63793;57.632;18.292;2022-12-18T12:28:20;2.40;99.90
37844;DHT22;63793;57.632;18.292;2022-12-18T12:31:42;2.40;99.90
37844;DHT22;63793;57.632;18.292;2022-12-18T12:34:17;2.40;99.90
37844;DHT22;63793;57.632;18.292;2022-12-18T12:39:22;2.30;99.90
37844;DHT22;63793;57.632;18.292;2022-12-18T12:41:49;2.30;99.90
37844;DHT22;63793;57.632;18.292;2022-12-18T12:44:43;2.20;99.90
37844;DHT22;63793;57.632;18.292;2022-12-18T12:47:17;2.20;99.90
37844;DHT22;63793;57.632;18.292;2022-12-18T12:49:46;2.20;99.90
37844;DHT22;63793;57.632;18.292;2022-12-18T12:55:00;2.20;99.90
37844;DHT22;63793;57.632;18.292;2022-12-18T12:57:35;2.20;99.90
37844;DHT22;63793;57.632;18.292;2022-12-18T13:00:13;2.20;99.90
37844;DHT22;63793;57.632;18.292;2022-12-18T13:02:52;2.20;99.90
37844;DHT22;63793;57.632;18.292;2022-12-18T13:05:39;2.20;99.90
37844;DHT22;63793;57.632;18.292;2022-12-18T13:08:21;2.10;99.90
37844;DHT22;63793;57.632;18.292;2022-12-18T13:10:49;2.10;99.90
37844;DHT22;63793;57.632;18.292;2022-12-18T13:13:53;2.10;99.90
37844;DHT22;63793;57.632;18.292;2022-12-18T13:16:25;2.10;99.90
37844;DHT22;63793;57.632;18.292;2022-12-18T13:18:55;2.10;99.90
37844;DHT22;63793;57.632;18.292;2022-12-18T13:21:29;2.10;99.90
37844;DHT22;63793;57.632;18.292;2022-12-18T13:23:56;2.20;99.90
37844;DHT22;63793;57.632;18.292;2022-12-18T13:26:37;2.20;99.90
37844;DHT22;63793;57.632;18.292;2022-12-18T13:29:04;2.20;99.90
37844;DHT22;63793;57.632;18.292;2022-12-18T13:36:55;2.20;99.90
37844;DHT22;63793;57.632;18.292;2022-12-18T13:39:33;2.20;99.90
37844;DHT22;63793;57.632;18.292;2022-12-18T13:44:33;2.30;99.90
37844;DHT22;63793;57.632;18.292;2022-12-18T13:49:52;2.30;99.90
37844;DHT22;63793;57.632;18.292;2022-12-18T13:52:22;2.30;99.90
37844;DHT22;63793;57.632;18.292;2022-12-18T13:54:55;2.40;99.90
37844;DHT22;63793;57.632;18.292;2022-12-18T13:59:52;2.40;99.90
37844;DHT22;63793;57.632;18.292;2022-12-18T14:02:27;2.50;99.90
37844;DHT22;63793;57.632;18.292;2022-12-18T14:04:54;2.50;99.90
37844;DHT22;63793;57.632;18.292;2022-12-18T14:07:24;2.50;99.90
37844;DHT22;63793;57.632;18.292;2022-12-18T14:09:53;2.50;99.90
37844;DHT22;63793;57.632;18.292;2022-12-18T14:12:46;2.50;99.90
37844;DHT22;63793;57.632;18.292;2022-12-18T14:15:36;2.50;99.90
37844;DHT22;63793;57.632;18.292;2022-12-18T14:20:41;2.50;99.90
37844;DHT22;63793;57.632;18.292;2022-12-18T14:25:58;2.50;99.90
37844;DHT22;63793;57.632;18.292;2022-12-18T14:28:31;2.50;99.90
37844;DHT22;63793;57.632;18.292;2022-12-18T14:30:58;2.50;99.90
37844;DHT22;63793;57.632;18.292;2022-12-18T14:33:27;2.50;99.90
37844;DHT22;63793;57.632;18.292;2022-12-18T14:36:03;2.50;99.90
37844;DHT22;63793;57.632;18.292;2022-12-18T14:43:28;2.40;99.90
37844;DHT22;63793;57.632;18.292;2022-12-18T14:45:56;2.40;99.90
37844;DHT22;63793;57.632;18.292;2022-12-18T14:48:44;2.40;99.90
37844;DHT22;63793;57.632;18.292;2022-12-18T14:51:17;2.40;99.90
37844;DHT22;63793;57.632;18.292;2022-12-18T14:54:01;2.40;99.90
37844;DHT22;63793;57.632;18.292;2022-12-18T14:56:36;2.40;99.90
37844;DHT22;63793;57.632;18.292;2022-12-18T14:59:13;2.40;99.90
37844;DHT22;63793;57.632;18.292;2022-12-18T15:09:37;2.40;99.90
37844;DHT22;63793;57.632;18.292;2022-12-18T15:12:05;2.40;99.90
37844;DHT22;63793;57.632;18.292;2022-12-18T15:17:05;2.40;99.90
37844;DHT22;63793;57.632;18.292;2022-12-18T15:22:11;2.60;99.90
37844;DHT22;63793;57.632;18.292;2022-12-18T15:24:39;2.50;99.90
37844;DHT22;63793;57.632;18.292;2022-12-18T15:27:23;2.50;99.90
37844;DHT22;63793;57.632;18.292;2022-12-18T15:32:37;2.50;99.90
37844;DHT22;63793;57.632;18.292;2022-12-18T15:37:45;2.50;99.90
37844;DHT22;63793;57.632;18.292;2022-12-18T15:40:23;2.50;99.90
37844;DHT22;63793;57.632;18.292;2022-12-18T15:42:53;2.50;99.90
37844;DHT22;63793;57.632;18.292;2022-12-18T15:45:39;2.50;99.90
37844;DHT22;63793;57.632;18.292;2022-12-18T15:48:33;2.50;99.90
37844;DHT22;63793;57.632;18.292;2022-12-18T15:51:01;2.50;99.90
37844;DHT22;63793;57.632;18.292;2022-12-18T15:53:31;2.50;99.90
37844;DHT22;63793;57.632;18.292;2022-12-18T15:55:59;2.50;99.90
37844;DHT22;63793;57.632;18.292;2022-12-18T15:58:45;2.50;99.90
37844;DHT22;63793;57.632;18.292;2022-12-18T16:01:13;2.50;99.90
37844;DHT22;63793;57.632;18.292;2022-12-18T16:03:40;2.50;99.90
37844;DHT22;63793;57.632;18.292;2022-12-18T16:06:08;2.50;99.90
37844;DHT22;63793;57.632;18.292;2022-12-18T16:08:35;2.50;99.90
37844;DHT22;63793;57.632;18.292;2022-12-18T16:11:02;2.50;99.90
37844;DHT22;63793;57.632;18.292;2022-12-18T16:13:29;2.50;99.90
37844;DHT22;63793;57.632;18.292;2022-12-18T16:15:56;2.50;99.90
37844;DHT22;63793;57.632;18.292;2022-12-18T16:18:23;2.50;99.90
37844;DHT22;63793;57.632;18.292;2022-12-18T16:20:50;2.50;99.90
37844;DHT22;63793;57.632;18.292;2022-12-18T16:23:17;2.50;99.90
37844;DHT22;63793;57.632;18.292;2022-12-18T16:25:44;2.50;99.90
37844;DHT22;63793;57.632;18.292;2022-12-18T16:28:11;2.50;99.90
37844;DHT22;63793;57.632;18.292;2022-12-18T16:30:38;2.60;99.90
37844;DHT22;63793;57.632;18.292;2022-12-18T16:33:05;2.50;99.90
37844;DHT22;63793;57.632;18.292;2022-12-18T16:35:33;2.50;99.90
37844;DHT22;63793;57.632;18.292;2022-12-18T16:38:00;2.50;99.90
37844;DHT22;63793;57.632;18.292;2022-12-18T16:40:27;2.50;99.90
37844;DHT22;63793;57.632;18.292;2022-12-18T16:42:54;2.50;99.90
37844;DHT22;63793;57.632;18.292;2022-12-18T16:45:21;2.50;99.90
37844;DHT22;63793;57.632;18.292;2022-12-18T16:47:48;2.50;99.90
37844;DHT22;63793;57.632;18.292;2022-12-18T16:50:15;2.50;99.90
37844;DHT22;63793;57.632;18.292;2022-12-18T16:52:42;2.50;99.90
37844;DHT22;63793;57.632;18.292;2022-12-18T16:55:09;2.50;99.90
37844;DHT22;63793;57.632;18.292;2022-12-18T16:57:36;2.50;99.90
37844;DHT22;63793;57.632;18.292;2022-12-18T17:00:04;2.50;99.90
37844;DHT22;63793;57.632;18.292;2022-12-18T17:02:32;2.50;99.90
37844;DHT22;63793;57.632;18.292;2022-12-18T17:04:59;2.50;99.90
37844;DHT22;63793;57.632;18.292;2022-12-18T17:07:27;2.50;99.90
37844;DHT22;63793;57.632;18.292;2022-12-18T17:09:54;2.50;99.90
37844;DHT22;63793;57.632;18.292;2022-12-18T17:12:22;2.50;99.90
37844;DHT22;63793;57.632;18.292;2022-12-18T17:14:49;2.40;99.90
37844;DHT22;63793;57.632;18.292;2022-12-18T17:17:16;2.40;99.90
37844;DHT22;63793;57.632;18.292;2022-12-18T17:19:49;2.40;99.90
37844;DHT22;63793;57.632;18.292;2022-12-18T17:22:16;2.40;99.90
37844;DHT22;63793;57.632;18.292;2022-12-18T17:24:43;2.50;99.90
37844;DHT22;63793;57.632;18.292;2022-12-18T17:27:10;2.50;99.90
37844;DHT22;63793;57.632;18.292;2022-12-18T17:29:37;2.40;99.90
37844;DHT22;63793;57.632;18.292;2022-12-18T17:32:13;2.40;99.90
37844;DHT22;63793;57.632;18.292;2022-12-18T17:34:39;2.40;99.90
37844;DHT22;63793;57.632;18.292;2022-12-18T17:37:07;2.40;99.90
37844;DHT22;63793;57.632;18.292;2022-12-18T17:39:34;2.40;99.90
37844;DHT22;63793;57.632;18.292;2022-12-18T17:42:01;2.40;99.90
37844;DHT22;63793;57.632;18.292;2022-12-18T17:44:28;2.40;99.90
37844;DHT22;63793;57.632;18.292;2022-12-18T17:46:55;2.30;99.90
37844;DHT22;63793;57.632;18.292;2022-12-18T17:49:22;2.30;99.90
37844;DHT22;63793;57.632;18.292;2022-12-18T17:51:49;2.30;99.90
37844;DHT22;63793;57.632;18.292;2022-12-18T17:54:17;2.30;99.90